sensor_id;sensor_type;location;lat;lon;timestamp;P1;durP1;ratioP1;P2;durP2;ratioP2
8397;SDS011;4236;54.504;9.588;2023-06-26T00:01:47;8.00;;;7.40;;
8397;SDS011;4236;54.504;9.588;2023-06-26T00:04:14;7.10;;;6.53;;
8397;SDS011;4236;54.504;9.588;2023-06-26T00:06:42;6.63;;;6.03;;
8397;SDS011;4236;54.504;9.588;2023-06-26T00:09:10;6.87;;;6.47;;
8397;SDS011;4236;54.504;9.588;2023-06-26T00:11:39;7.40;;;6.80;;
8397;SDS011;4236;54.504;9.588;2023-06-26T00:14:07;7.57;;;6.97;;
8397;SDS011;4236;54.504;9.588;2023-06-26T00:16:35;7.60;;;7.10;;
8397;SDS011;4236;54.504;9.588;2023-06-26T00:19:03;16.13;;;6.57;;
8397;SDS011;4236;54.504;9.588;2023-06-26T00:21:31;6.73;;;6.33;;
8397;SDS011;4236;54.504;9.588;2023-06-26T00:23:58;7.80;;;7.07;;
8397;SDS011;4236;54.504;9.588;2023-06-26T00:26:26;6.73;;;6.33;;
8397;SDS011;4236;54.504;9.588;2023-06-26T00:28:55;6.40;;;5.90;;
8397;SDS011;4236;54.504;9.588;2023-06-26T00:31:23;6.57;;;6.17;;
8397;SDS011;4236;54.504;9.588;2023-06-26T00:33:51;6.63;;;6.13;;
8397;SDS011;4236;54.504;9.588;2023-06-26T00:36:18;8.60;;;7.10;;
8397;SDS011;4236;54.504;9.588;2023-06-26T00:38:49;7.47;;;6.90;;
8397;SDS011;4236;54.504;9.588;2023-06-26T00:41:16;6.97;;;6.47;;
8397;SDS011;4236;54.504;9.588;2023-06-26T00:43:44;6.33;;;5.93;;
8397;SDS011;4236;54.504;9.588;2023-06-26T00:46:14;6.83;;;6.37;;
8397;SDS011;4236;54.504;9.588;2023-06-26T00:48:42;8.17;;;6.53;;
8397;SDS011;4236;54.504;9.588;2023-06-26T00:51:12;7.77;;;7.17;;
8397;SDS011;4236;54.504;9.588;2023-06-26T00:53:41;6.80;;;6.40;;
8397;SDS011;4236;54.504;9.588;2023-06-26T00:56:09;6.23;;;5.67;;
8397;SDS011;4236;54.504;9.588;2023-06-26T00:58:38;6.27;;;5.80;;
8397;SDS011;4236;54.504;9.588;2023-06-26T01:01:06;6.97;;;6.47;;
8397;SDS011;4236;54.504;9.588;2023-06-26T01:03:36;6.63;;;6.07;;
8397;SDS011;4236;54.504;9.588;2023-06-26T01:06:06;6.53;;;5.93;;
8397;SDS011;4236;54.504;9.588;2023-06-26T01:08:37;9.90;;;6.70;;
8397;SDS011;4236;54.504;9.588;2023-06-26T01:11:06;7.07;;;6.57;;
8397;SDS011;4236;54.504;9.588;2023-06-26T01:13:34;6.97;;;6.50;;
8397;SDS011;4236;54.504;9.588;2023-06-26T01:16:03;7.50;;;6.90;;
8397;SDS011;4236;54.504;9.588;2023-06-26T01:18:32;8.00;;;7.40;;
8397;SDS011;4236;54.504;9.588;2023-06-26T01:21:02;8.67;;;7.87;;
8397;SDS011;4236;54.504;9.588;2023-06-26T01:23:35;7.27;;;6.70;;
8397;SDS011;4236;54.504;9.588;2023-06-26T01:26:11;6.90;;;6.40;;
8397;SDS011;4236;54.504;9.588;2023-06-26T01:28:43;6.17;;;5.73;;
8397;SDS011;4236;54.504;9.588;2023-06-26T01:31:12;7.30;;;6.67;;
8397;SDS011;4236;54.504;9.588;2023-06-26T01:33:41;7.10;;;6.40;;
8397;SDS011;4236;54.504;9.588;2023-06-26T01:36:10;6.27;;;5.90;;
8397;SDS011;4236;54.504;9.588;2023-06-26T01:38:38;6.67;;;6.07;;
8397;SDS011;4236;54.504;9.588;2023-06-26T01:41:06;7.20;;;6.60;;
8397;SDS011;4236;54.504;9.588;2023-06-26T01:43:39;7.43;;;6.73;;
8397;SDS011;4236;54.504;9.588;2023-06-26T01:46:11;7.43;;;6.93;;
8397;SDS011;4236;54.504;9.588;2023-06-26T01:48:47;7.50;;;6.87;;
8397;SDS011;4236;54.504;9.588;2023-06-26T01:51:18;7.20;;;6.70;;
8397;SDS011;4236;54.504;9.588;2023-06-26T01:53:54;6.93;;;6.43;;
8397;SDS011;4236;54.504;9.588;2023-06-26T01:56:24;8.37;;;7.77;;
8397;SDS011;4236;54.504;9.588;2023-06-26T01:58:57;7.97;;;7.37;;
8397;SDS011;4236;54.504;9.588;2023-06-26T02:01:25;8.40;;;7.80;;
8397;SDS011;4236;54.504;9.588;2023-06-26T02:03:53;8.40;;;7.70;;
8397;SDS011;4236;54.504;9.588;2023-06-26T02:06:21;9.10;;;8.40;;
8397;SDS011;4236;54.504;9.588;2023-06-26T02:08:48;10.77;;;9.83;;
8397;SDS011;4236;54.504;9.588;2023-06-26T02:11:16;8.20;;;7.53;;
8397;SDS011;4236;54.504;9.588;2023-06-26T02:13:44;9.27;;;8.57;;
8397;SDS011;4236;54.504;9.588;2023-06-26T02:16:13;8.43;;;7.50;;
8397;SDS011;4236;54.504;9.588;2023-06-26T02:18:42;8.40;;;7.80;;
8397;SDS011;4236;54.504;9.588;2023-06-26T02:21:10;9.10;;;7.53;;
8397;SDS011;4236;54.504;9.588;2023-06-26T02:23:37;8.93;;;8.23;;
8397;SDS011;4236;54.504;9.588;2023-06-26T02:26:05;7.77;;;7.17;;
8397;SDS011;4236;54.504;9.588;2023-06-26T02:28:33;8.73;;;8.03;;
8397;SDS011;4236;54.504;9.588;2023-06-26T02:31:01;10.87;;;9.10;;
8397;SDS011;4236;54.504;9.588;2023-06-26T02:33:30;8.97;;;8.07;;
8397;SDS011;4236;54.504;9.588;2023-06-26T02:35:58;8.27;;;7.67;;
8397;SDS011;4236;54.504;9.588;2023-06-26T02:38:26;8.30;;;7.70;;
8397;SDS011;4236;54.504;9.588;2023-06-26T02:40:53;9.60;;;8.73;;
8397;SDS011;4236;54.504;9.588;2023-06-26T02:43:21;8.63;;;7.93;;
8397;SDS011;4236;54.504;9.588;2023-06-26T02:45:49;10.07;;;9.33;;
8397;SDS011;4236;54.504;9.588;2023-06-26T02:48:16;9.83;;;9.13;;
8397;SDS011;4236;54.504;9.588;2023-06-26T02:50:45;8.50;;;7.77;;
8397;SDS011;4236;54.504;9.588;2023-06-26T02:53:13;9.10;;;8.50;;
8397;SDS011;4236;54.504;9.588;2023-06-26T02:55:42;8.27;;;7.77;;
8397;SDS011;4236;54.504;9.588;2023-06-26T02:58:10;9.30;;;8.60;;
8397;SDS011;4236;54.504;9.588;2023-06-26T03:00:37;8.93;;;8.33;;
8397;SDS011;4236;54.504;9.588;2023-06-26T03:03:07;8.80;;;8.10;;
8397;SDS011;4236;54.504;9.588;2023-06-26T03:05:35;10.20;;;9.40;;
8397;SDS011;4236;54.504;9.588;2023-06-26T03:08:04;9.30;;;8.70;;
8397;SDS011;4236;54.504;9.588;2023-06-26T03:10:32;7.97;;;7.37;;
8397;SDS011;4236;54.504;9.588;2023-06-26T03:13:00;9.47;;;8.77;;
8397;SDS011;4236;54.504;9.588;2023-06-26T03:15:28;9.57;;;8.97;;
8397;SDS011;4236;54.504;9.588;2023-06-26T03:17:55;10.30;;;9.30;;
8397;SDS011;4236;54.504;9.588;2023-06-26T03:20:23;9.53;;;8.87;;
8397;SDS011;4236;54.504;9.588;2023-06-26T03:22:51;9.77;;;8.97;;
8397;SDS011;4236;54.504;9.588;2023-06-26T03:25:20;10.07;;;9.33;;
8397;SDS011;4236;54.504;9.588;2023-06-26T03:27:48;10.97;;;10.17;;
8397;SDS011;4236;54.504;9.588;2023-06-26T03:30:15;10.20;;;9.50;;
8397;SDS011;4236;54.504;9.588;2023-06-26T03:32:43;10.00;;;9.20;;
8397;SDS011;4236;54.504;9.588;2023-06-26T03:35:11;10.40;;;9.60;;
8397;SDS011;4236;54.504;9.588;2023-06-26T03:37:38;11.37;;;10.47;;
8397;SDS011;4236;54.504;9.588;2023-06-26T03:40:07;10.83;;;9.90;;
8397;SDS011;4236;54.504;9.588;2023-06-26T03:42:37;9.53;;;8.83;;
8397;SDS011;4236;54.504;9.588;2023-06-26T03:45:05;9.97;;;9.23;;
8397;SDS011;4236;54.504;9.588;2023-06-26T03:47:33;9.63;;;9.00;;
8397;SDS011;4236;54.504;9.588;2023-06-26T03:50:01;10.70;;;10.00;;
8397;SDS011;4236;54.504;9.588;2023-06-26T03:52:28;10.90;;;10.20;;
8397;SDS011;4236;54.504;9.588;2023-06-26T03:54:57;11.10;;;10.20;;
8397;SDS011;4236;54.504;9.588;2023-06-26T03:57:25;11.13;;;10.33;;
8397;SDS011;4236;54.504;9.588;2023-06-26T03:59:54;10.63;;;9.93;;
8397;SDS011;4236;54.504;9.588;2023-06-26T04:02:22;10.27;;;9.57;;
8397;SDS011;4236;54.504;9.588;2023-06-26T04:04:50;11.83;;;11.03;;
8397;SDS011;4236;54.504;9.588;2023-06-26T04:07:18;10.57;;;9.77;;
8397;SDS011;4236;54.504;9.588;2023-06-26T04:09:46;11.97;;;11.17;;
8397;SDS011;4236;54.504;9.588;2023-06-26T04:12:13;10.90;;;10.20;;
8397;SDS011;4236;54.504;9.588;2023-06-26T04:14:41;11.93;;;11.03;;
8397;SDS011;4236;54.504;9.588;2023-06-26T04:17:11;11.37;;;10.57;;
8397;SDS011;4236;54.504;9.588;2023-06-26T04:19:39;11.47;;;10.60;;
8397;SDS011;4236;54.504;9.588;2023-06-26T04:22:07;10.10;;;9.40;;
8397;SDS011;4236;54.504;9.588;2023-06-26T04:24:34;11.33;;;10.40;;
8397;SDS011;4236;54.504;9.588;2023-06-26T04:27:02;11.80;;;10.87;;
8397;SDS011;4236;54.504;9.588;2023-06-26T04:29:31;9.90;;;9.20;;
8397;SDS011;4236;54.504;9.588;2023-06-26T04:31:59;11.37;;;10.67;;
8397;SDS011;4236;54.504;9.588;2023-06-26T04:34:28;12.10;;;11.20;;
8397;SDS011;4236;54.504;9.588;2023-06-26T04:36:59;11.47;;;10.30;;
8397;SDS011;4236;54.504;9.588;2023-06-26T04:39:30;11.17;;;10.47;;
8397;SDS011;4236;54.504;9.588;2023-06-26T04:41:57;9.73;;;9.10;;
8397;SDS011;4236;54.504;9.588;2023-06-26T04:44:26;9.90;;;9.30;;
8397;SDS011;4236;54.504;9.588;2023-06-26T04:46:54;10.90;;;10.20;;
8397;SDS011;4236;54.504;9.588;2023-06-26T04:49:22;10.30;;;9.60;;
8397;SDS011;4236;54.504;9.588;2023-06-26T04:51:51;9.50;;;9.00;;
8397;SDS011;4236;54.504;9.588;2023-06-26T04:54:19;9.00;;;8.50;;
8397;SDS011;4236;54.504;9.588;2023-06-26T04:56:48;9.33;;;8.73;;
8397;SDS011;4236;54.504;9.588;2023-06-26T04:59:15;9.40;;;8.87;;
8397;SDS011;4236;54.504;9.588;2023-06-26T05:01:43;9.17;;;8.63;;
8397;SDS011;4236;54.504;9.588;2023-06-26T05:04:14;10.20;;;9.50;;
8397;SDS011;4236;54.504;9.588;2023-06-26T05:06:43;10.90;;;10.10;;
8397;SDS011;4236;54.504;9.588;2023-06-26T05:09:12;10.43;;;9.73;;
8397;SDS011;4236;54.504;9.588;2023-06-26T05:11:40;9.18;;;8.57;;
8397;SDS011;4236;54.504;9.588;2023-06-26T05:14:07;9.50;;;8.60;;
8397;SDS011;4236;54.504;9.588;2023-06-26T05:16:35;9.90;;;9.05;;
8397;SDS011;4236;54.504;9.588;2023-06-26T05:19:03;8.50;;;7.90;;
8397;SDS011;4236;54.504;9.588;2023-06-26T05:21:31;9.90;;;9.20;;
8397;SDS011;4236;54.504;9.588;2023-06-26T05:23:59;8.65;;;8.15;;
8397;SDS011;4236;54.504;9.588;2023-06-26T05:26:31;8.68;;;8.00;;
8397;SDS011;4236;54.504;9.588;2023-06-26T05:28:59;8.60;;;8.00;;
8397;SDS011;4236;54.504;9.588;2023-06-26T05:31:28;10.05;;;9.45;;
8397;SDS011;4236;54.504;9.588;2023-06-26T05:33:58;8.32;;;7.82;;
8397;SDS011;4236;54.504;9.588;2023-06-26T05:36:29;9.52;;;8.57;;
8397;SDS011;4236;54.504;9.588;2023-06-26T05:38:59;9.95;;;9.05;;
8397;SDS011;4236;54.504;9.588;2023-06-26T05:41:28;9.27;;;8.68;;
8397;SDS011;4236;54.504;9.588;2023-06-26T05:43:58;10.13;;;9.43;;
8397;SDS011;4236;54.504;9.588;2023-06-26T05:46:26;8.63;;;8.02;;
8397;SDS011;4236;54.504;9.588;2023-06-26T05:48:53;8.75;;;8.25;;
8397;SDS011;4236;54.504;9.588;2023-06-26T05:51:21;9.63;;;8.80;;
8397;SDS011;4236;54.504;9.588;2023-06-26T05:53:50;8.35;;;7.75;;
8397;SDS011;4236;54.504;9.588;2023-06-26T05:56:18;8.18;;;7.35;;
8397;SDS011;4236;54.504;9.588;2023-06-26T05:58:48;8.35;;;7.85;;
8397;SDS011;4236;54.504;9.588;2023-06-26T06:01:17;8.57;;;8.07;;
8397;SDS011;4236;54.504;9.588;2023-06-26T06:03:45;9.95;;;9.05;;
8397;SDS011;4236;54.504;9.588;2023-06-26T06:06:13;9.27;;;8.68;;
8397;SDS011;4236;54.504;9.588;2023-06-26T06:08:42;9.25;;;8.68;;
8397;SDS011;4236;54.504;9.588;2023-06-26T06:11:13;9.32;;;8.70;;
8397;SDS011;4236;54.504;9.588;2023-06-26T06:13:41;8.13;;;7.63;;
8397;SDS011;4236;54.504;9.588;2023-06-26T06:16:10;8.93;;;8.43;;
8397;SDS011;4236;54.504;9.588;2023-06-26T06:18:38;8.93;;;7.97;;
8397;SDS011;4236;54.504;9.588;2023-06-26T06:21:06;9.15;;;8.55;;
8397;SDS011;4236;54.504;9.588;2023-06-26T06:23:33;8.55;;;7.85;;
8397;SDS011;4236;54.504;9.588;2023-06-26T06:26:01;8.18;;;7.68;;
8397;SDS011;4236;54.504;9.588;2023-06-26T06:28:29;8.10;;;7.50;;
8397;SDS011;4236;54.504;9.588;2023-06-26T06:30:56;8.70;;;8.20;;
8397;SDS011;4236;54.504;9.588;2023-06-26T06:33:25;7.82;;;7.30;;
8397;SDS011;4236;54.504;9.588;2023-06-26T06:35:53;8.75;;;8.18;;
8397;SDS011;4236;54.504;9.588;2023-06-26T06:38:21;8.93;;;8.32;;
8397;SDS011;4236;54.504;9.588;2023-06-26T06:40:49;7.45;;;7.05;;
8397;SDS011;4236;54.504;9.588;2023-06-26T06:43:16;9.13;;;8.63;;
8397;SDS011;4236;54.504;9.588;2023-06-26T06:45:44;9.27;;;8.65;;
8397;SDS011;4236;54.504;9.588;2023-06-26T06:48:12;9.10;;;8.50;;
8397;SDS011;4236;54.504;9.588;2023-06-26T06:50:41;9.10;;;8.43;;
8397;SDS011;4236;54.504;9.588;2023-06-26T06:53:09;8.98;;;8.38;;
8397;SDS011;4236;54.504;9.588;2023-06-26T06:55:37;9.40;;;8.55;;
8397;SDS011;4236;54.504;9.588;2023-06-26T06:58:04;8.07;;;7.47;;
8397;SDS011;4236;54.504;9.588;2023-06-26T07:00:32;10.00;;;9.25;;
8397;SDS011;4236;54.504;9.588;2023-06-26T07:03:00;7.93;;;7.43;;
8397;SDS011;4236;54.504;9.588;2023-06-26T07:05:28;7.90;;;7.30;;
8397;SDS011;4236;54.504;9.588;2023-06-26T07:07:57;7.70;;;7.30;;
8397;SDS011;4236;54.504;9.588;2023-06-26T07:10:27;9.13;;;8.63;;
8397;SDS011;4236;54.504;9.588;2023-06-26T07:12:55;8.25;;;7.75;;
8397;SDS011;4236;54.504;9.588;2023-06-26T07:15:23;8.30;;;7.63;;
8397;SDS011;4236;54.504;9.588;2023-06-26T07:17:53;8.27;;;7.68;;
8397;SDS011;4236;54.504;9.588;2023-06-26T07:20:20;6.88;;;6.43;;
8397;SDS011;4236;54.504;9.588;2023-06-26T07:22:48;8.18;;;7.72;;
8397;SDS011;4236;54.504;9.588;2023-06-26T07:25:17;7.88;;;7.47;;
8397;SDS011;4236;54.504;9.588;2023-06-26T07:27:45;8.02;;;7.53;;
8397;SDS011;4236;54.504;9.588;2023-06-26T07:30:13;11.52;;;8.23;;
8397;SDS011;4236;54.504;9.588;2023-06-26T07:32:40;7.85;;;7.45;;
8397;SDS011;4236;54.504;9.588;2023-06-26T07:35:09;8.00;;;7.32;;
8397;SDS011;4236;54.504;9.588;2023-06-26T07:37:36;7.18;;;6.78;;
8397;SDS011;4236;54.504;9.588;2023-06-26T07:40:04;8.23;;;7.72;;
8397;SDS011;4236;54.504;9.588;2023-06-26T07:42:34;8.80;;;8.10;;
8397;SDS011;4236;54.504;9.588;2023-06-26T07:45:02;8.15;;;7.63;;
8397;SDS011;4236;54.504;9.588;2023-06-26T07:47:36;8.90;;;8.30;;
8397;SDS011;4236;54.504;9.588;2023-06-26T07:50:04;8.27;;;7.78;;
8397;SDS011;4236;54.504;9.588;2023-06-26T07:52:32;8.07;;;7.57;;
8397;SDS011;4236;54.504;9.588;2023-06-26T07:55:00;7.72;;;7.32;;
8397;SDS011;4236;54.504;9.588;2023-06-26T07:57:28;9.20;;;8.60;;
8397;SDS011;4236;54.504;9.588;2023-06-26T07:59:58;8.95;;;8.35;;
8397;SDS011;4236;54.504;9.588;2023-06-26T08:02:26;7.53;;;7.00;;
8397;SDS011;4236;54.504;9.588;2023-06-26T08:04:53;7.63;;;7.22;;
8397;SDS011;4236;54.504;9.588;2023-06-26T08:07:21;8.50;;;8.00;;
8397;SDS011;4236;54.504;9.588;2023-06-26T08:09:49;8.13;;;7.63;;
8397;SDS011;4236;54.504;9.588;2023-06-26T08:12:17;8.43;;;7.75;;
8397;SDS011;4236;54.504;9.588;2023-06-26T08:14:44;8.30;;;7.80;;
8397;SDS011;4236;54.504;9.588;2023-06-26T08:17:13;8.90;;;8.10;;
8397;SDS011;4236;54.504;9.588;2023-06-26T08:19:41;8.50;;;8.00;;
8397;SDS011;4236;54.504;9.588;2023-06-26T08:22:09;8.80;;;8.30;;
8397;SDS011;4236;54.504;9.588;2023-06-26T08:24:37;9.30;;;8.50;;
8397;SDS011;4236;54.504;9.588;2023-06-26T08:27:05;9.93;;;9.25;;
8397;SDS011;4236;54.504;9.588;2023-06-26T08:29:34;9.73;;;8.63;;
8397;SDS011;4236;54.504;9.588;2023-06-26T08:32:02;10.33;;;9.23;;
8397;SDS011;4236;54.504;9.588;2023-06-26T08:34:31;12.10;;;11.10;;
8397;SDS011;4236;54.504;9.588;2023-06-26T08:36:59;11.53;;;10.60;;
8397;SDS011;4236;54.504;9.588;2023-06-26T08:39:28;12.93;;;11.83;;
8397;SDS011;4236;54.504;9.588;2023-06-26T08:41:56;12.87;;;11.77;;
8397;SDS011;4236;54.504;9.588;2023-06-26T08:44:24;14.87;;;13.77;;
8397;SDS011;4236;54.504;9.588;2023-06-26T08:46:51;15.80;;;14.40;;
8397;SDS011;4236;54.504;9.588;2023-06-26T08:49:20;16.40;;;13.77;;
8397;SDS011;4236;54.504;9.588;2023-06-26T08:51:56;15.17;;;13.80;;
8397;SDS011;4236;54.504;9.588;2023-06-26T08:54:30;15.70;;;14.30;;
8397;SDS011;4236;54.504;9.588;2023-06-26T08:57:04;16.30;;;15.00;;
8397;SDS011;4236;54.504;9.588;2023-06-26T08:59:34;17.37;;;15.87;;
8397;SDS011;4236;54.504;9.588;2023-06-26T09:02:02;15.67;;;14.30;;
8397;SDS011;4236;54.504;9.588;2023-06-26T09:04:30;12.13;;;10.97;;
8397;SDS011;4236;54.504;9.588;2023-06-26T09:06:59;11.20;;;10.30;;
8397;SDS011;4236;54.504;9.588;2023-06-26T09:09:28;10.87;;;9.67;;
8397;SDS011;4236;54.504;9.588;2023-06-26T09:11:56;10.20;;;9.40;;
8397;SDS011;4236;54.504;9.588;2023-06-26T09:14:23;12.23;;;11.23;;
8397;SDS011;4236;54.504;9.588;2023-06-26T09:16:52;10.40;;;9.70;;
8397;SDS011;4236;54.504;9.588;2023-06-26T09:19:19;10.43;;;9.53;;
8397;SDS011;4236;54.504;9.588;2023-06-26T09:21:49;11.07;;;10.23;;
8397;SDS011;4236;54.504;9.588;2023-06-26T09:24:19;11.03;;;10.10;;
8397;SDS011;4236;54.504;9.588;2023-06-26T09:26:48;10.00;;;9.10;;
8397;SDS011;4236;54.504;9.588;2023-06-26T09:29:18;10.63;;;9.60;;
8397;SDS011;4236;54.504;9.588;2023-06-26T09:31:46;10.90;;;9.40;;
8397;SDS011;4236;54.504;9.588;2023-06-26T09:34:14;9.70;;;9.00;;
8397;SDS011;4236;54.504;9.588;2023-06-26T09:36:42;10.33;;;9.37;;
8397;SDS011;4236;54.504;9.588;2023-06-26T09:39:13;10.93;;;9.90;;
8397;SDS011;4236;54.504;9.588;2023-06-26T09:41:42;9.53;;;8.47;;
8397;SDS011;4236;54.504;9.588;2023-06-26T09:44:11;10.27;;;9.27;;
8397;SDS011;4236;54.504;9.588;2023-06-26T09:46:41;10.63;;;9.80;;
8397;SDS011;4236;54.504;9.588;2023-06-26T09:49:12;10.63;;;9.60;;
8397;SDS011;4236;54.504;9.588;2023-06-26T09:51:40;9.97;;;9.00;;
8397;SDS011;4236;54.504;9.588;2023-06-26T09:54:10;10.83;;;9.83;;
8397;SDS011;4236;54.504;9.588;2023-06-26T09:56:37;15.97;;;10.40;;
8397;SDS011;4236;54.504;9.588;2023-06-26T09:59:07;12.17;;;11.00;;
8397;SDS011;4236;54.504;9.588;2023-06-26T10:01:39;14.40;;;10.30;;
8397;SDS011;4236;54.504;9.588;2023-06-26T10:04:08;19.70;;;11.40;;
8397;SDS011;4236;54.504;9.588;2023-06-26T10:06:37;11.70;;;10.70;;
8397;SDS011;4236;54.504;9.588;2023-06-26T10:09:08;12.50;;;11.27;;
8397;SDS011;4236;54.504;9.588;2023-06-26T10:11:39;16.47;;;10.60;;
8397;SDS011;4236;54.504;9.588;2023-06-26T10:14:13;11.40;;;10.30;;
8397;SDS011;4236;54.504;9.588;2023-06-26T10:16:44;13.27;;;11.40;;
8397;SDS011;4236;54.504;9.588;2023-06-26T10:19:13;13.50;;;11.40;;
8397;SDS011;4236;54.504;9.588;2023-06-26T10:21:45;12.70;;;11.37;;
8397;SDS011;4236;54.504;9.588;2023-06-26T10:24:13;11.17;;;10.07;;
8397;SDS011;4236;54.504;9.588;2023-06-26T10:26:42;13.60;;;12.27;;
8397;SDS011;4236;54.504;9.588;2023-06-26T10:29:11;12.53;;;11.50;;
8397;SDS011;4236;54.504;9.588;2023-06-26T10:31:45;14.30;;;13.00;;
8397;SDS011;4236;54.504;9.588;2023-06-26T10:34:17;14.07;;;12.90;;
8397;SDS011;4236;54.504;9.588;2023-06-26T10:36:45;12.53;;;11.10;;
8397;SDS011;4236;54.504;9.588;2023-06-26T10:39:14;12.40;;;11.40;;
8397;SDS011;4236;54.504;9.588;2023-06-26T10:41:42;12.10;;;10.93;;
8397;SDS011;4236;54.504;9.588;2023-06-26T10:44:31;12.37;;;11.27;;
8397;SDS011;4236;54.504;9.588;2023-06-26T10:47:08;13.07;;;11.77;;
8397;SDS011;4236;54.504;9.588;2023-06-26T10:49:37;11.60;;;10.47;;
8397;SDS011;4236;54.504;9.588;2023-06-26T10:52:06;13.10;;;11.97;;
8397;SDS011;4236;54.504;9.588;2023-06-26T10:54:34;13.10;;;11.73;;
8397;SDS011;4236;54.504;9.588;2023-06-26T10:57:04;11.60;;;10.60;;
8397;SDS011;4236;54.504;9.588;2023-06-26T10:59:38;13.10;;;11.90;;
8397;SDS011;4236;54.504;9.588;2023-06-26T11:02:07;11.90;;;10.57;;
8397;SDS011;4236;54.504;9.588;2023-06-26T11:04:37;16.87;;;12.43;;
8397;SDS011;4236;54.504;9.588;2023-06-26T11:07:16;10.63;;;9.43;;
8397;SDS011;4236;54.504;9.588;2023-06-26T11:09:58;13.03;;;11.87;;
8397;SDS011;4236;54.504;9.588;2023-06-26T11:12:34;11.77;;;10.67;;
8397;SDS011;4236;54.504;9.588;2023-06-26T11:15:05;11.60;;;9.53;;
8397;SDS011;4236;54.504;9.588;2023-06-26T11:17:35;10.30;;;9.23;;
8397;SDS011;4236;54.504;9.588;2023-06-26T11:20:04;11.00;;;7.93;;
8397;SDS011;4236;54.504;9.588;2023-06-26T11:22:34;10.07;;;7.43;;
8397;SDS011;4236;54.504;9.588;2023-06-26T11:25:03;8.40;;;7.40;;
8397;SDS011;4236;54.504;9.588;2023-06-26T11:27:32;9.80;;;5.67;;
8397;SDS011;4236;54.504;9.588;2023-06-26T11:30:07;7.97;;;5.60;;
8397;SDS011;4236;54.504;9.588;2023-06-26T11:32:36;7.27;;;5.13;;
8397;SDS011;4236;54.504;9.588;2023-06-26T11:35:05;8.67;;;6.23;;
8397;SDS011;4236;54.504;9.588;2023-06-26T11:37:33;6.23;;;5.00;;
8397;SDS011;4236;54.504;9.588;2023-06-26T11:40:15;6.13;;;5.30;;
8397;SDS011;4236;54.504;9.588;2023-06-26T11:42:44;6.73;;;5.97;;
8397;SDS011;4236;54.504;9.588;2023-06-26T11:45:13;7.73;;;5.80;;
8397;SDS011;4236;54.504;9.588;2023-06-26T11:47:41;11.23;;;7.17;;
8397;SDS011;4236;54.504;9.588;2023-06-26T11:50:14;13.07;;;7.20;;
8397;SDS011;4236;54.504;9.588;2023-06-26T11:52:42;9.00;;;6.87;;
8397;SDS011;4236;54.504;9.588;2023-06-26T11:55:10;11.00;;;6.40;;
8397;SDS011;4236;54.504;9.588;2023-06-26T11:57:38;11.83;;;6.57;;
8397;SDS011;4236;54.504;9.588;2023-06-26T12:00:14;6.97;;;5.50;;
8397;SDS011;4236;54.504;9.588;2023-06-26T12:02:44;6.87;;;6.00;;
8397;SDS011;4236;54.504;9.588;2023-06-26T12:05:12;9.03;;;6.90;;
8397;SDS011;4236;54.504;9.588;2023-06-26T12:07:41;7.37;;;6.40;;
8397;SDS011;4236;54.504;9.588;2023-06-26T12:10:12;7.63;;;6.60;;
8397;SDS011;4236;54.504;9.588;2023-06-26T12:12:41;6.80;;;6.10;;
8397;SDS011;4236;54.504;9.588;2023-06-26T12:15:14;10.30;;;7.23;;
8397;SDS011;4236;54.504;9.588;2023-06-26T12:17:44;6.30;;;5.60;;
8397;SDS011;4236;54.504;9.588;2023-06-26T12:20:18;7.30;;;5.93;;
8397;SDS011;4236;54.504;9.588;2023-06-26T12:22:49;12.47;;;6.23;;
8397;SDS011;4236;54.504;9.588;2023-06-26T12:25:21;10.80;;;6.40;;
8397;SDS011;4236;54.504;9.588;2023-06-26T12:27:50;6.10;;;5.67;;
8397;SDS011;4236;54.504;9.588;2023-06-26T12:30:19;10.30;;;5.70;;
8397;SDS011;4236;54.504;9.588;2023-06-26T12:32:47;9.50;;;5.40;;
8397;SDS011;4236;54.504;9.588;2023-06-26T12:35:15;7.03;;;6.30;;
8397;SDS011;4236;54.504;9.588;2023-06-26T12:37:43;6.33;;;5.43;;
8397;SDS011;4236;54.504;9.588;2023-06-26T12:40:19;6.57;;;5.57;;
8397;SDS011;4236;54.504;9.588;2023-06-26T12:42:49;6.87;;;5.53;;
8397;SDS011;4236;54.504;9.588;2023-06-26T12:45:17;5.60;;;5.20;;
8397;SDS011;4236;54.504;9.588;2023-06-26T12:47:49;5.80;;;5.27;;
8397;SDS011;4236;54.504;9.588;2023-06-26T12:50:17;5.07;;;4.57;;
8397;SDS011;4236;54.504;9.588;2023-06-26T12:52:45;4.70;;;4.30;;
8397;SDS011;4236;54.504;9.588;2023-06-26T12:55:13;6.80;;;5.30;;
8397;SDS011;4236;54.504;9.588;2023-06-26T12:57:40;5.60;;;5.00;;
8397;SDS011;4236;54.504;9.588;2023-06-26T13:00:08;8.03;;;5.00;;
8397;SDS011;4236;54.504;9.588;2023-06-26T13:02:39;5.43;;;4.93;;
8397;SDS011;4236;54.504;9.588;2023-06-26T13:05:07;9.23;;;4.90;;
8397;SDS011;4236;54.504;9.588;2023-06-26T13:07:35;5.07;;;4.77;;
8397;SDS011;4236;54.504;9.588;2023-06-26T13:10:03;5.50;;;5.00;;
8397;SDS011;4236;54.504;9.588;2023-06-26T13:12:32;5.50;;;5.00;;
8397;SDS011;4236;54.504;9.588;2023-06-26T13:14:59;10.67;;;4.80;;
8397;SDS011;4236;54.504;9.588;2023-06-26T13:17:27;5.90;;;4.60;;
8397;SDS011;4236;54.504;9.588;2023-06-26T13:19:56;7.63;;;4.80;;
8397;SDS011;4236;54.504;9.588;2023-06-26T13:22:24;5.20;;;4.70;;
8397;SDS011;4236;54.504;9.588;2023-06-26T13:24:52;5.20;;;4.80;;
8397;SDS011;4236;54.504;9.588;2023-06-26T13:27:20;5.93;;;5.23;;
8397;SDS011;4236;54.504;9.588;2023-06-26T13:29:47;5.70;;;5.30;;
8397;SDS011;4236;54.504;9.588;2023-06-26T13:32:15;4.80;;;4.43;;
8397;SDS011;4236;54.504;9.588;2023-06-26T13:34:43;8.63;;;5.20;;
8397;SDS011;4236;54.504;9.588;2023-06-26T13:37:12;5.37;;;4.97;;
8397;SDS011;4236;54.504;9.588;2023-06-26T13:39:40;5.00;;;4.60;;
8397;SDS011;4236;54.504;9.588;2023-06-26T13:42:08;4.50;;;4.20;;
8397;SDS011;4236;54.504;9.588;2023-06-26T13:44:36;5.90;;;4.07;;
8397;SDS011;4236;54.504;9.588;2023-06-26T13:47:24;5.13;;;4.83;;
8397;SDS011;4236;54.504;9.588;2023-06-26T13:49:52;4.83;;;4.53;;
8397;SDS011;4236;54.504;9.588;2023-06-26T13:52:21;6.23;;;4.50;;
8397;SDS011;4236;54.504;9.588;2023-06-26T13:54:48;5.67;;;4.40;;
8397;SDS011;4236;54.504;9.588;2023-06-26T13:57:16;6.30;;;4.53;;
8397;SDS011;4236;54.504;9.588;2023-06-26T13:59:45;9.70;;;5.20;;
8397;SDS011;4236;54.504;9.588;2023-06-26T14:02:14;5.20;;;4.80;;
8397;SDS011;4236;54.504;9.588;2023-06-26T14:04:41;4.00;;;3.77;;
8397;SDS011;4236;54.504;9.588;2023-06-26T14:07:09;7.10;;;4.60;;
8397;SDS011;4236;54.504;9.588;2023-06-26T14:09:38;6.97;;;5.00;;
8397;SDS011;4236;54.504;9.588;2023-06-26T14:12:06;5.73;;;5.20;;
8397;SDS011;4236;54.504;9.588;2023-06-26T14:14:35;5.50;;;5.00;;
8397;SDS011;4236;54.504;9.588;2023-06-26T14:17:03;5.20;;;4.70;;
8397;SDS011;4236;54.504;9.588;2023-06-26T14:19:32;4.63;;;4.30;;
8397;SDS011;4236;54.504;9.588;2023-06-26T14:22:00;7.33;;;5.00;;
8397;SDS011;4236;54.504;9.588;2023-06-26T14:24:28;7.97;;;4.97;;
8397;SDS011;4236;54.504;9.588;2023-06-26T14:26:57;5.40;;;5.00;;
8397;SDS011;4236;54.504;9.588;2023-06-26T14:29:25;4.57;;;4.10;;
8397;SDS011;4236;54.504;9.588;2023-06-26T14:31:52;5.03;;;4.63;;
8397;SDS011;4236;54.504;9.588;2023-06-26T14:34:22;5.23;;;4.60;;
8397;SDS011;4236;54.504;9.588;2023-06-26T14:36:49;4.87;;;4.40;;
8397;SDS011;4236;54.504;9.588;2023-06-26T14:39:17;4.80;;;4.30;;
8397;SDS011;4236;54.504;9.588;2023-06-26T14:41:45;6.10;;;4.37;;
8397;SDS011;4236;54.504;9.588;2023-06-26T14:44:15;6.10;;;4.93;;
8397;SDS011;4236;54.504;9.588;2023-06-26T14:46:44;4.93;;;4.50;;
8397;SDS011;4236;54.504;9.588;2023-06-26T14:49:12;5.27;;;4.87;;
8397;SDS011;4236;54.504;9.588;2023-06-26T14:51:39;8.77;;;4.57;;
8397;SDS011;4236;54.504;9.588;2023-06-26T14:54:07;5.20;;;4.80;;
8397;SDS011;4236;54.504;9.588;2023-06-26T14:56:35;7.17;;;4.50;;
8397;SDS011;4236;54.504;9.588;2023-06-26T14:59:03;5.97;;;4.20;;
8397;SDS011;4236;54.504;9.588;2023-06-26T15:01:32;5.83;;;5.40;;
8397;SDS011;4236;54.504;9.588;2023-06-26T15:04:00;5.67;;;4.50;;
8397;SDS011;4236;54.504;9.588;2023-06-26T15:06:28;5.43;;;3.97;;
8397;SDS011;4236;54.504;9.588;2023-06-26T15:08:56;8.03;;;5.20;;
8397;SDS011;4236;54.504;9.588;2023-06-26T15:11:23;5.57;;;4.33;;
8397;SDS011;4236;54.504;9.588;2023-06-26T15:13:51;4.73;;;4.20;;
8397;SDS011;4236;54.504;9.588;2023-06-26T15:16:19;7.10;;;4.67;;
8397;SDS011;4236;54.504;9.588;2023-06-26T15:18:49;5.00;;;4.60;;